Time;durP1;ratioP1;P1;durP2;ratioP2;P2;SDS_P1;SDS_P2;PMS_P1;PMS_P2;Temp;Humidity;BMP_temperature;BMP_pressure;BME280_temperature;BME280_humidity;BME280_pressure;Samples;Min_cycle;Max_cycle;Signal;HPM_P1;HPM_P2
2022/03/13 00:00:21;;;;;;;117.88;76.63;;;-1.60;99.90;;;;;;4993031;28;20588;-74
2022/03/13 00:02:48;;;;;;;262.85;167.23;;;-1.60;99.90;;;;;;4992752;28;20022;-74
2022/03/13 00:05:17;;;;;;;134.65;80.22;;;-1.60;99.90;;;;;;4993080;28;20029;-73
2022/03/13 00:07:45;;;;;;;107.22;64.50;;;-1.60;99.90;;;;;;4992843;28;20037;-74
2022/03/13 00:10:11;;;;;;;89.95;53.88;;;-1.60;99.90;;;;;;4985138;28;20030;-73
2022/03/13 00:12:37;;;;;;;85.57;51.30;;;-1.60;99.90;;;;;;4973402;28;20066;-74
2022/03/13 00:15:09;;;;;;;87.03;47.25;;;-1.60;99.90;;;;;;4973111;28;20055;-75
2022/03/13 00:17:35;;;;;;;88.78;53.65;;;-1.60;99.90;;;;;;4971676;28;20038;-75
2022/03/13 00:20:03;;;;;;;104.18;60.13;;;-1.50;99.90;;;;;;4955753;28;20086;-73
2022/03/13 00:22:34;;;;;;;95.57;57.72;;;-1.50;99.90;;;;;;4973342;28;20094;-74
2022/03/13 00:25:02;;;;;;;102.20;61.83;;;-1.50;99.90;;;;;;4973349;28;20477;-74
2022/03/13 00:27:31;;;;;;;112.90;64.68;;;-1.50;99.90;;;;;;4973234;28;20026;-73
2022/03/13 00:29:58;;;;;;;96.22;61.75;;;-1.50;99.90;;;;;;4971980;28;20055;-72
2022/03/13 00:32:23;;;;;;;96.90;58.53;;;-1.50;99.90;;;;;;4973404;28;20030;-71
2022/03/13 00:34:50;;;;;;;90.13;56.75;;;-1.50;99.90;;;;;;4973534;28;20023;-72
2022/03/13 00:37:17;;;;;;;110.35;61.85;;;-1.50;99.90;;;;;;4973160;28;20389;-72
2022/03/13 00:39:44;;;;;;;115.05;64.32;;;-1.50;99.90;;;;;;4972791;28;20031;-73
2022/03/13 00:42:13;;;;;;;110.65;68.53;;;-1.60;99.90;;;;;;4973173;28;20087;-68
2022/03/13 00:44:39;;;;;;;92.82;59.78;;;-1.50;99.90;;;;;;4973131;28;20035;-72
2022/03/13 00:47:06;;;;;;;101.97;61.20;;;-1.60;99.90;;;;;;4973197;28;20075;-72
2022/03/13 00:49:33;;;;;;;152.02;92.85;;;-1.60;99.90;;;;;;4973218;28;20034;-72
2022/03/13 00:52:01;;;;;;;153.43;91.93;;;-1.70;99.90;;;;;;4972618;28;20045;-72
2022/03/13 00:54:28;;;;;;;146.82;92.10;;;-1.70;99.90;;;;;;4973027;28;20393;-71
2022/03/13 00:56:55;;;;;;;160.10;95.00;;;-1.80;99.90;;;;;;4955750;28;20019;-73
2022/03/13 00:59:21;;;;;;;141.30;86.80;;;-1.80;99.90;;;;;;4972872;28;20041;-72
2022/03/13 01:01:48;;;;;;;156.98;92.15;;;-1.80;99.90;;;;;;4973046;28;20059;-71
2022/03/13 01:04:16;;;;;;;139.70;83.43;;;-1.80;99.90;;;;;;4973652;28;20026;-73
2022/03/13 01:06:44;;;;;;;155.55;85.05;;;-1.80;99.90;;;;;;4978376;28;20404;-72
2022/03/13 01:09:09;;;;;;;122.00;77.10;;;-1.90;99.90;;;;;;4979586;28;20023;-71
2022/03/13 01:11:35;;;;;;;146.45;85.70;;;-1.90;99.90;;;;;;4979081;28;20025;-72
2022/03/13 01:14:02;;;;;;;143.90;85.22;;;-1.90;99.90;;;;;;4979422;28;20118;-71
2022/03/13 01:16:34;;;;;;;147.40;89.53;;;-1.80;99.90;;;;;;4979094;28;20027;-72
2022/03/13 01:19:00;;;;;;;133.10;77.18;;;-1.90;99.90;;;;;;4978850;28;20078;-70
2022/03/13 01:21:27;;;;;;;144.05;86.13;;;-1.90;99.90;;;;;;4979313;28;20027;-71
2022/03/13 01:24:05;;;;;;;148.00;90.40;;;-1.90;99.90;;;;;;4977964;28;20037;-72
2022/03/13 01:26:36;;;;;;;147.85;96.47;;;-2.00;99.90;;;;;;4979348;28;20035;-73
2022/03/13 01:29:05;;;;;;;198.88;112.22;;;-2.10;99.90;;;;;;4979067;28;20042;-73
2022/03/13 01:31:34;;;;;;;179.43;111.18;;;-2.20;99.90;;;;;;4961858;28;20031;-75
2022/03/13 01:34:01;;;;;;;177.60;106.35;;;-2.10;99.90;;;;;;4962213;28;20023;-74
2022/03/13 01:36:28;;;;;;;157.07;101.25;;;-2.20;99.90;;;;;;4979167;28;20031;-72
2022/03/13 01:38:58;;;;;;;184.70;110.18;;;-2.30;99.90;;;;;;4978921;28;20030;-71
2022/03/13 01:41:27;;;;;;;187.45;113.45;;;-2.30;99.90;;;;;;4978809;28;20026;-70
2022/03/13 01:43:54;;;;;;;174.13;109.45;;;-2.40;99.90;;;;;;4978786;28;20081;-71
2022/03/13 01:46:20;;;;;;;178.75;109.35;;;-2.40;99.90;;;;;;4979278;28;20052;-71
2022/03/13 01:49:04;;;;;;;175.18;103.63;;;-2.40;99.90;;;;;;4978942;28;20156;-71
2022/03/13 01:51:32;;;;;;;168.50;104.60;;;-2.40;99.90;;;;;;4977527;28;20053;-70
2022/03/13 01:54:04;;;;;;;184.43;111.40;;;-2.40;99.90;;;;;;4979030;28;20033;-71
2022/03/13 01:56:36;;;;;;;193.23;115.00;;;-2.40;99.90;;;;;;4979051;28;20023;-71
2022/03/13 01:59:06;;;;;;;185.38;108.57;;;-2.50;99.90;;;;;;4962507;28;20047;-71
2022/03/13 02:01:33;;;;;;;178.43;105.97;;;-2.50;99.90;;;;;;4979289;28;20027;-71
2022/03/13 02:03:59;;;;;;;147.05;92.82;;;-2.50;99.90;;;;;;4979252;28;20030;-72
2022/03/13 02:06:27;;;;;;;171.57;101.93;;;-2.50;99.90;;;;;;4978879;28;20129;-71
2022/03/13 02:08:54;;;;;;;165.18;101.25;;;-2.50;99.90;;;;;;4977597;28;20023;-72
2022/03/13 02:11:23;;;;;;;176.30;102.43;;;-2.50;99.90;;;;;;4978673;28;20472;-71
2022/03/13 02:13:54;;;;;;;169.93;102.80;;;-2.50;99.90;;;;;;4978815;28;20485;-73
2022/03/13 02:16:22;;;;;;;157.15;95.97;;;-2.50;99.90;;;;;;4976298;28;20035;-74
2022/03/13 02:18:53;;;;;;;156.70;95.25;;;-2.60;99.90;;;;;;4975721;28;20042;-72
2022/03/13 02:21:24;;;;;;;126.20;74.63;;;-2.60;99.90;;;;;;4975778;28;20481;-73
2022/03/13 02:24:00;;;;;;;149.75;87.65;;;-2.50;99.90;;;;;;4975851;28;20437;-73
2022/03/13 02:26:27;;;;;;;121.50;78.97;;;-2.50;99.90;;;;;;4975788;28;20469;-73
2022/03/13 02:28:55;;;;;;;124.85;77.60;;;-2.50;99.90;;;;;;4974492;28;20029;-73
2022/03/13 02:31:40;;;;;;;103.70;66.88;;;-2.60;99.90;;;;;;4975543;28;20042;-73
2022/03/13 02:34:12;;;;;;;117.80;69.25;;;-2.50;99.90;;;;;;4975641;28;20058;-71
2022/03/13 02:36:38;;;;;;;123.40;74.40;;;-2.40;99.90;;;;;;4975577;28;20026;-71
2022/03/13 02:39:06;;;;;;;115.90;65.93;;;-2.50;99.90;;;;;;4975199;28;20053;-72
2022/03/13 02:41:33;;;;;;;113.70;66.93;;;-2.50;99.90;;;;;;4975181;28;20027;-72
2022/03/13 02:44:06;;;;;;;119.47;74.60;;;-2.50;99.90;;;;;;4975381;28;20094;-71
2022/03/13 02:46:50;;;;;;;125.72;76.20;;;-2.50;99.90;;;;;;4957573;28;20027;-72
2022/03/13 02:49:18;;;;;;;143.32;82.97;;;-2.60;99.90;;;;;;4975246;28;20023;-71
2022/03/13 02:51:45;;;;;;;114.32;70.05;;;-2.60;99.90;;;;;;4958107;28;20221;-70
2022/03/13 02:54:12;;;;;;;126.18;75.45;;;-2.60;99.90;;;;;;4957424;28;20039;-72
2022/03/13 02:56:38;;;;;;;135.43;75.22;;;-2.60;99.90;;;;;;4974488;28;20370;-72
2022/03/13 02:59:04;;;;;;;135.75;79.00;;;-2.60;99.90;;;;;;4962331;28;20049;-72
2022/03/13 03:01:31;;;;;;;162.93;92.10;;;-2.60;99.90;;;;;;4975077;28;20018;-72
2022/03/13 03:04:01;;;;;;;152.50;87.25;;;-2.70;99.90;;;;;;4951116;28;20030;-72
2022/03/13 03:06:34;;;;;;;144.82;84.30;;;-2.70;99.90;;;;;;4975139;28;20473;-73
2022/03/13 03:09:02;;;;;;;137.90;83.22;;;-2.70;99.90;;;;;;4973200;28;20731;-71
2022/03/13 03:11:32;;;;;;;141.43;85.85;;;-2.70;99.90;;;;;;4974180;28;20358;-72
2022/03/13 03:14:00;;;;;;;134.90;79.03;;;-2.70;99.90;;;;;;4973124;28;20041;-71
2022/03/13 03:16:26;;;;;;;150.65;82.38;;;-2.70;99.90;;;;;;4973614;28;20034;-72
2022/03/13 03:18:52;;;;;;;150.93;89.35;;;-2.80;99.90;;;;;;4972597;28;20051;-72
2022/03/13 03:21:18;;;;;;;146.52;83.35;;;-2.90;99.90;;;;;;4972972;28;20046;-71
2022/03/13 03:23:44;;;;;;;149.50;92.32;;;-3.00;99.90;;;;;;4972721;28;20507;-70
2022/03/13 03:26:10;;;;;;;153.02;94.75;;;-3.00;99.90;;;;;;4956070;28;20027;-71
2022/03/13 03:28:39;;;;;;;149.25;87.30;;;-3.00;99.90;;;;;;4971186;28;20461;-71
2022/03/13 03:31:07;;;;;;;139.10;83.75;;;-3.10;99.90;;;;;;4970603;28;20027;-71
2022/03/13 03:33:33;;;;;;;143.07;86.72;;;-3.10;99.90;;;;;;4971759;28;20033;-71
2022/03/13 03:35:59;;;;;;;138.13;86.80;;;-3.10;99.90;;;;;;4971025;28;20030;-71
2022/03/13 03:38:25;;;;;;;146.25;85.50;;;-3.20;99.90;;;;;;4954414;28;20033;-72
2022/03/13 03:40:51;;;;;;;142.15;82.95;;;-3.10;99.90;;;;;;4971892;28;20041;-72
2022/03/13 03:43:18;;;;;;;141.35;85.30;;;-3.20;99.90;;;;;;4972023;28;20034;-72
2022/03/13 03:45:44;;;;;;;176.10;102.35;;;-3.20;99.90;;;;;;4954495;28;20034;-70
2022/03/13 03:48:10;;;;;;;143.77;88.18;;;-3.20;99.90;;;;;;4973013;28;20030;-72
2022/03/13 03:50:37;;;;;;;153.93;94.10;;;-3.20;99.90;;;;;;4971618;28;20086;-72
2022/03/13 03:53:03;;;;;;;145.20;86.63;;;-3.20;99.90;;;;;;4972908;28;20053;-71
2022/03/13 03:55:29;;;;;;;146.68;87.72;;;-3.20;99.90;;;;;;4972587;28;20542;-72
2022/03/13 03:57:55;;;;;;;157.93;91.38;;;-3.20;99.90;;;;;;4972858;28;20066;-72
2022/03/13 04:00:23;;;;;;;149.80;91.70;;;-3.10;99.90;;;;;;4972521;28;20073;-72
2022/03/13 04:02:50;;;;;;;142.02;84.97;;;-3.10;99.90;;;;;;4973965;28;20118;-71
2022/03/13 04:05:16;;;;;;;133.60;83.55;;;-3.10;99.90;;;;;;4973803;28;20031;-72
2022/03/13 04:07:42;;;;;;;128.02;79.10;;;-3.10;99.90;;;;;;4973902;28;20037;-72
2022/03/13 04:10:10;;;;;;;123.20;77.82;;;-3.10;99.90;;;;;;4973511;28;20082;-72
2022/03/13 04:12:36;;;;;;;134.85;79.07;;;-3.10;99.90;;;;;;4973613;28;20057;-72
2022/03/13 04:15:03;;;;;;;124.55;79.75;;;-3.00;99.90;;;;;;4973274;28;20109;-72
2022/03/13 04:17:30;;;;;;;132.20;84.75;;;-3.10;99.90;;;;;;4956135;28;20066;-72
2022/03/13 04:19:56;;;;;;;137.55;85.07;;;-3.10;99.90;;;;;;4972079;28;20054;-71
2022/03/13 04:22:23;;;;;;;125.88;79.97;;;-3.10;99.90;;;;;;4973364;28;20030;-72
2022/03/13 04:24:49;;;;;;;128.77;83.65;;;-3.10;99.90;;;;;;4973560;28;20030;-72
2022/03/13 04:27:14;;;;;;;132.68;85.60;;;-3.20;99.90;;;;;;4972106;28;20031;-72
2022/03/13 04:29:41;;;;;;;144.63;90.57;;;-3.30;99.90;;;;;;4973057;28;20026;-73
2022/03/13 04:32:08;;;;;;;160.45;97.75;;;-3.60;99.90;;;;;;4973378;28;20022;-72
2022/03/13 04:34:36;;;;;;;160.27;97.93;;;-3.60;99.90;;;;;;4973476;28;20034;-71
2022/03/13 04:37:02;;;;;;;160.32;98.07;;;-3.60;99.90;;;;;;4972950;28;20022;-71
2022/03/13 04:39:35;;;;;;;154.70;92.38;;;-3.50;99.90;;;;;;4972002;28;20062;-72
2022/03/13 04:42:05;;;;;;;148.75;90.18;;;-3.40;99.90;;;;;;4955481;28;20113;-71
2022/03/13 04:44:34;;;;;;;136.23;87.05;;;-3.40;99.90;;;;;;4972919;28;20110;-72
2022/03/13 04:47:01;;;;;;;156.18;93.63;;;-3.30;99.90;;;;;;4971278;28;20097;-72
2022/03/13 04:49:28;;;;;;;149.27;94.10;;;-3.30;99.90;;;;;;4972594;28;20065;-72
2022/03/13 04:51:54;;;;;;;161.00;93.75;;;-3.40;99.90;;;;;;4972179;28;20054;-72
2022/03/13 04:54:21;;;;;;;187.95;108.43;;;-3.40;99.90;;;;;;4971677;28;20026;-72
2022/03/13 04:56:47;;;;;;;154.50;93.57;;;-3.30;99.90;;;;;;4971809;28;20030;-73
2022/03/13 04:59:13;;;;;;;152.65;91.22;;;-3.20;99.90;;;;;;4971917;28;20042;-72
2022/03/13 05:01:40;;;;;;;140.15;89.00;;;-3.30;99.90;;;;;;4970666;28;20029;-72
2022/03/13 05:04:07;;;;;;;148.40;89.50;;;-3.30;99.90;;;;;;4973001;28;20466;-72
2022/03/13 05:06:35;;;;;;;150.15;88.25;;;-3.20;99.90;;;;;;4971746;28;20042;-72
2022/03/13 05:09:02;;;;;;;134.80;86.63;;;-3.20;99.90;;;;;;4972536;28;20114;-72
2022/03/13 05:11:28;;;;;;;147.75;91.88;;;-3.30;99.90;;;;;;4971746;28;20049;-72
2022/03/13 05:13:54;;;;;;;138.15;89.63;;;-3.30;99.90;;;;;;4972151;28;20469;-72
2022/03/13 05:16:20;;;;;;;145.68;87.97;;;-3.30;99.90;;;;;;4972829;28;20073;-72
2022/03/13 05:18:46;;;;;;;152.68;91.85;;;-3.00;99.90;;;;;;4971902;28;20035;-72
2022/03/13 05:21:12;;;;;;;145.13;88.93;;;-2.20;99.90;;;;;;4972568;28;20027;-72
2022/03/13 05:23:38;;;;;;;141.52;87.88;;;-1.40;99.90;;;;;;4972259;28;20144;-72
2022/03/13 05:26:04;;;;;;;118.47;77.32;;;-0.80;99.90;;;;;;4972324;28;20034;-71
2022/03/13 05:28:30;;;;;;;116.65;72.47;;;-0.30;99.90;;;;;;4972406;28;20035;-72
2022/03/13 05:30:56;;;;;;;115.60;72.13;;;0.30;99.90;;;;;;4972234;28;20030;-73
2022/03/13 05:33:22;;;;;;;123.47;74.50;;;0.80;96.60;;;;;;4972058;28;20113;-72
2022/03/13 05:35:51;;;;;;;118.25;76.75;;;1.10;93.70;;;;;;4972737;28;20042;-73
2022/03/13 05:38:17;;;;;;;117.10;77.03;;;1.50;92.20;;;;;;4972538;28;20109;-72
2022/03/13 05:40:43;;;;;;;126.72;76.22;;;1.90;91.70;;;;;;4972295;28;20094;-72
2022/03/13 05:43:11;;;;;;;139.00;88.45;;;2.10;90.60;;;;;;4971917;28;20073;-71
2022/03/13 05:45:39;;;;;;;128.57;82.32;;;2.20;88.40;;;;;;4972211;28;20030;-73
2022/03/13 05:48:10;;;;;;;123.68;82.40;;;2.40;87.30;;;;;;4972614;28;20042;-71
2022/03/13 05:50:37;;;;;;;132.98;91.85;;;3.10;87.90;;;;;;4955339;28;20405;-72
2022/03/13 05:53:04;;;;;;;148.13;96.55;;;3.10;83.70;;;;;;4958526;28;20521;-71
2022/03/13 05:55:30;;;;;;;153.88;94.32;;;3.80;81.90;;;;;;4975282;28;20590;-72
2022/03/13 05:58:00;;;;;;;143.88;98.20;;;3.80;80.30;;;;;;4975670;28;20023;-73
2022/03/13 06:00:27;;;;;;;150.10;100.00;;;3.90;79.30;;;;;;4975377;28;20038;-72
2022/03/13 06:02:54;;;;;;;155.70;103.32;;;4.20;79.10;;;;;;4975854;28;20031;-71
2022/03/13 06:05:21;;;;;;;154.57;97.70;;;4.60;77.60;;;;;;4976119;28;20540;-72
2022/03/13 06:07:49;;;;;;;128.57;90.03;;;4.90;77.20;;;;;;4975469;28;20106;-72
2022/03/13 06:10:15;;;;;;;121.22;82.10;;;5.10;76.10;;;;;;4974279;28;20517;-70
2022/03/13 06:12:42;;;;;;;126.65;82.57;;;5.10;77.30;;;;;;4974305;28;20389;-71
2022/03/13 06:15:14;;;;;;;121.00;80.07;;;4.40;77.30;;;;;;4974795;28;20035;-72
2022/03/13 06:17:42;;;;;;;110.00;71.65;;;2.90;79.30;;;;;;4958361;28;20458;-73
2022/03/13 06:20:12;;;;;;;114.45;73.50;;;2.30;84.10;;;;;;4975533;28;20034;-72
2022/03/13 06:22:39;;;;;;;127.53;87.05;;;1.80;87.20;;;;;;4975437;28;20023;-72
2022/03/13 06:25:08;;;;;;;136.02;87.90;;;1.80;88.50;;;;;;4975572;28;20030;-72
2022/03/13 06:27:35;;;;;;;136.98;86.72;;;1.60;90.50;;;;;;4975729;28;20086;-72
2022/03/13 06:30:12;;;;;;;131.48;80.80;;;1.50;92.00;;;;;;4970402;28;20030;-73
2022/03/13 06:32:42;;;;;;;124.78;82.00;;;1.40;92.40;;;;;;4956002;29;20042;-73
2022/03/13 06:35:09;;;;;;;117.88;70.55;;;1.50;93.90;;;;;;4956539;29;20054;-72
2022/03/13 06:37:36;;;;;;;122.03;69.43;;;1.40;96.20;;;;;;4956199;29;20023;-73
2022/03/13 06:40:02;;;;;;;114.80;67.18;;;1.60;97.50;;;;;;4951694;29;20430;-71
2022/03/13 06:42:28;;;;;;;69.45;40.75;;;1.70;96.20;;;;;;4951265;29;20031;-73
2022/03/13 06:44:54;;;;;;;68.05;38.53;;;1.30;98.30;;;;;;4954118;29;20124;-73
2022/03/13 06:47:20;;;;;;;85.28;40.10;;;1.50;96.90;;;;;;4953972;29;20367;-73
2022/03/13 06:49:46;;;;;;;66.80;38.60;;;1.60;96.30;;;;;;4938122;29;20075;-72
2022/03/13 06:52:12;;;;;;;74.85;41.22;;;1.80;96.50;;;;;;4954756;28;20015;-71
2022/03/13 06:54:38;;;;;;;108.07;57.03;;;1.70;94.40;;;;;;4956954;28;20041;-72
2022/03/13 06:57:05;;;;;;;69.75;40.08;;;1.90;94.10;;;;;;4955350;29;20066;-71
2022/03/13 06:59:31;;;;;;;64.45;37.83;;;1.70;95.00;;;;;;4955023;29;20027;-72
2022/03/13 07:01:57;;;;;;;59.95;33.45;;;2.00;94.50;;;;;;4937832;28;20026;-72
2022/03/13 07:04:23;;;;;;;58.15;33.95;;;1.80;92.90;;;;;;4971938;28;20377;-72
2022/03/13 07:06:49;;;;;;;70.95;35.05;;;1.90;92.10;;;;;;4974520;28;20490;-71
2022/03/13 07:09:15;;;;;;;64.72;34.22;;;2.10;92.10;;;;;;4974280;28;20121;-70
2022/03/13 07:11:47;;;;;;;54.85;31.05;;;2.20;92.10;;;;;;4974741;28;20037;-72
2022/03/13 07:14:14;;;;;;;70.82;42.28;;;2.20;90.80;;;;;;4973795;28;20426;-72
2022/03/13 07:16:41;;;;;;;71.88;39.50;;;2.50;90.40;;;;;;4974662;28;20066;-73
2022/03/13 07:19:07;;;;;;;91.28;48.55;;;2.50;89.80;;;;;;4987833;28;20389;-72
2022/03/13 07:21:33;;;;;;;71.38;41.50;;;2.50;88.30;;;;;;4993707;28;20101;-73
2022/03/13 07:23:58;;;;;;;59.67;35.35;;;2.80;88.60;;;;;;4993660;28;20192;-73
2022/03/13 07:26:25;;;;;;;59.22;34.33;;;3.00;86.90;;;;;;4993113;28;20023;-73
2022/03/13 07:28:51;;;;;;;72.22;35.20;;;3.20;85.00;;;;;;4991918;28;20038;-73
2022/03/13 07:31:17;;;;;;;62.92;34.70;;;3.40;87.90;;;;;;4992227;28;20034;-73
2022/03/13 07:33:42;;;;;;;66.38;35.38;;;3.30;81.60;;;;;;4993603;28;20374;-73
2022/03/13 07:36:08;;;;;;;77.18;38.75;;;3.50;80.60;;;;;;4992329;28;20069;-72
2022/03/13 07:38:34;;;;;;;60.95;34.35;;;3.50;80.50;;;;;;4992321;28;20480;-73
2022/03/13 07:41:00;;;;;;;63.85;32.58;;;3.80;82.50;;;;;;4969295;28;20062;-73
2022/03/13 07:43:26;;;;;;;61.08;32.72;;;4.00;81.90;;;;;;4963884;28;20081;-72
2022/03/13 07:45:52;;;;;;;51.03;28.60;;;4.20;77.80;;;;;;4973105;28;20019;-72
2022/03/13 07:48:18;;;;;;;45.33;27.85;;;4.30;75.70;;;;;;4972013;28;20374;-73
2022/03/13 07:50:44;;;;;;;52.40;27.63;;;4.30;74.80;;;;;;4973154;28;20033;-73
2022/03/13 07:53:10;;;;;;;51.80;30.90;;;4.50;75.10;;;;;;4973452;28;20023;-72
2022/03/13 07:55:37;;;;;;;47.28;24.10;;;4.50;77.30;;;;;;4972996;28;20023;-72
2022/03/13 07:58:03;;;;;;;39.45;23.02;;;4.60;73.30;;;;;;4955915;28;20105;-73
2022/03/13 08:00:29;;;;;;;41.35;25.67;;;4.60;73.80;;;;;;4972743;28;20058;-71
2022/03/13 08:02:55;;;;;;;40.00;23.27;;;4.80;74.60;;;;;;4972871;28;20022;-71
2022/03/13 08:05:21;;;;;;;35.58;23.73;;;5.00;73.60;;;;;;4972682;28;20022;-72
2022/03/13 08:07:57;;;;;;;37.58;20.50;;;5.10;74.50;;;;;;4972310;28;20094;-73
2022/03/13 08:10:26;;;;;;;40.30;22.30;;;5.20;75.50;;;;;;4954360;28;20031;-72
2022/03/13 08:12:54;;;;;;;32.70;19.05;;;5.20;71.00;;;;;;4971904;28;20133;-72
2022/03/13 08:15:21;;;;;;;39.45;22.13;;;5.40;70.80;;;;;;4970620;28;20038;-72
2022/03/13 08:17:47;;;;;;;37.08;21.50;;;5.60;71.40;;;;;;4971592;28;20046;-70
2022/03/13 08:20:13;;;;;;;43.13;24.98;;;5.80;69.50;;;;;;4972648;28;20045;-72
2022/03/13 08:22:40;;;;;;;37.33;23.67;;;6.00;70.20;;;;;;4967402;28;20500;-72
2022/03/13 08:25:11;;;;;;;41.78;24.08;;;6.10;69.00;;;;;;4963215;28;20053;-72
2022/03/13 08:27:37;;;;;;;42.83;23.27;;;6.10;68.60;;;;;;4955054;28;20050;-73
2022/03/13 08:30:04;;;;;;;48.58;24.65;;;6.00;66.00;;;;;;4972714;28;20035;-73
2022/03/13 08:32:30;;;;;;;53.85;31.60;;;6.30;67.90;;;;;;4972355;28;20138;-73
2022/03/13 08:34:56;;;;;;;51.33;29.27;;;6.40;66.30;;;;;;4955920;28;20062;-72
2022/03/13 08:37:22;;;;;;;37.65;24.13;;;6.20;67.50;;;;;;4973477;28;20026;-72
2022/03/13 08:39:48;;;;;;;35.95;22.60;;;5.90;67.10;;;;;;4973220;28;20042;-72
2022/03/13 08:42:15;;;;;;;39.80;21.88;;;6.20;69.80;;;;;;4982711;28;20038;-74
2022/03/13 08:44:41;;;;;;;45.20;23.50;;;6.30;68.60;;;;;;4972336;28;20027;-72
2022/03/13 08:47:10;;;;;;;45.47;27.58;;;6.50;64.40;;;;;;4972678;28;20031;-74
2022/03/13 08:49:36;;;;;;;65.13;34.40;;;6.60;61.60;;;;;;4972831;28;20027;-73
2022/03/13 08:52:02;;;;;;;58.88;34.13;;;6.50;62.10;;;;;;4967286;28;20034;-74
2022/03/13 08:54:28;;;;;;;46.40;28.75;;;6.80;63.50;;;;;;4953712;29;20019;-74
2022/03/13 08:56:54;;;;;;;36.25;20.67;;;7.10;62.10;;;;;;4953745;29;20082;-73
2022/03/13 08:59:21;;;;;;;26.90;13.93;;;7.10;59.90;;;;;;4953680;28;20035;-73
2022/03/13 09:01:52;;;;;;;27.00;16.38;;;7.20;57.90;;;;;;4953786;29;20047;-74
2022/03/13 09:04:19;;;;;;;23.23;14.98;;;7.20;56.90;;;;;;4953629;29;20109;-73
2022/03/13 09:06:46;;;;;;;25.00;14.30;;;7.30;58.30;;;;;;4953483;29;20469;-73
2022/03/13 09:09:13;;;;;;;25.77;13.55;;;6.90;55.60;;;;;;4953747;29;20046;-73
2022/03/13 09:11:39;;;;;;;27.50;14.82;;;6.80;55.60;;;;;;4953240;29;20035;-74
2022/03/13 09:14:06;;;;;;;29.05;15.85;;;7.00;57.60;;;;;;4953438;29;20031;-71
2022/03/13 09:16:37;;;;;;;22.27;13.25;;;7.30;58.60;;;;;;4953293;29;20030;-74
2022/03/13 09:19:04;;;;;;;24.27;14.60;;;6.80;54.10;;;;;;4938832;29;20058;-72
2022/03/13 09:21:31;;;;;;;25.38;15.38;;;7.00;56.00;;;;;;4934038;29;20030;-72
2022/03/13 09:23:57;;;;;;;26.75;14.27;;;7.10;56.30;;;;;;4934396;29;20137;-73
2022/03/13 09:26:23;;;;;;;28.52;14.20;;;7.20;55.80;;;;;;4935520;29;20505;-75
2022/03/13 09:28:49;;;;;;;26.73;15.93;;;7.50;58.10;;;;;;4938187;29;20035;-74
2022/03/13 09:31:15;;;;;;;37.42;18.75;;;7.70;58.80;;;;;;4938086;29;20028;-75
2022/03/13 09:33:41;;;;;;;28.67;18.20;;;8.00;59.20;;;;;;4937941;29;20056;-73
2022/03/13 09:36:07;;;;;;;26.15;14.50;;;8.00;59.70;;;;;;4937945;29;20422;-74
2022/03/13 09:38:34;;;;;;;23.40;12.68;;;7.60;56.70;;;;;;4937888;29;20069;-73
2022/03/13 09:41:00;;;;;;;31.95;14.80;;;7.70;58.60;;;;;;4937670;29;20450;-76
2022/03/13 09:43:26;;;;;;;24.88;13.75;;;7.90;58.50;;;;;;4937853;29;20028;-75
2022/03/13 09:45:52;;;;;;;23.38;13.80;;;8.00;57.20;;;;;;4937598;29;20028;-74
2022/03/13 09:48:21;;;;;;;29.08;16.05;;;8.00;55.60;;;;;;4937716;29;20086;-75
2022/03/13 09:50:47;;;;;;;21.45;13.77;;;7.90;54.40;;;;;;4937392;29;20019;-75
2022/03/13 09:53:14;;;;;;;23.83;13.85;;;7.50;54.10;;;;;;4936991;29;20071;-75
2022/03/13 09:55:40;;;;;;;20.27;11.27;;;7.90;56.60;;;;;;4937453;29;20031;-74
2022/03/13 09:58:09;;;;;;;25.23;15.02;;;8.10;54.80;;;;;;4961147;28;20393;-74
2022/03/13 10:00:36;;;;;;;24.88;15.23;;;8.20;55.40;;;;;;4956406;29;20482;-74
2022/03/13 10:03:05;;;;;;;24.73;14.30;;;8.40;55.90;;;;;;4956725;29;20414;-74
2022/03/13 10:05:56;;;;;;;22.83;10.73;;;8.60;55.90;;;;;;4956221;29;20082;-74
2022/03/13 10:08:29;;;;;;;23.50;13.82;;;8.70;52.70;;;;;;4956330;29;20078;-72
2022/03/13 10:10:56;;;;;;;28.02;15.23;;;8.70;52.40;;;;;;4967344;28;20058;-74
2022/03/13 10:13:38;;;;;;;22.20;11.48;;;8.70;52.50;;;;;;4975703;28;20030;-72
2022/03/13 10:16:07;;;;;;;18.02;10.88;;;8.90;55.20;;;;;;4974958;28;20481;-73
2022/03/13 10:18:34;;;;;;;21.48;10.48;;;8.50;51.50;;;;;;4984259;28;20604;-72
2022/03/13 10:21:13;;;;;;;23.00;11.27;;;8.50;50.30;;;;;;4994376;28;20034;-72
2022/03/13 10:23:40;;;;;;;23.52;13.20;;;8.40;51.20;;;;;;4957470;28;20035;-73
2022/03/13 10:26:07;;;;;;;22.80;12.60;;;8.60;54.60;;;;;;4954598;29;20548;-72
2022/03/13 10:28:37;;;;;;;29.73;14.63;;;8.80;52.00;;;;;;4955734;29;20027;-73
2022/03/13 10:31:03;;;;;;;19.90;11.98;;;8.80;51.10;;;;;;4955328;28;20055;-74
2022/03/13 10:33:42;;;;;;;24.85;12.80;;;8.50;50.00;;;;;;4954885;29;20066;-73
2022/03/13 10:36:17;;;;;;;22.20;11.68;;;8.60;52.90;;;;;;4974754;28;20469;-73
2022/03/13 10:38:46;;;;;;;18.45;10.63;;;8.60;52.20;;;;;;4974148;28;20030;-71
2022/03/13 10:41:13;;;;;;;17.75;10.95;;;8.50;49.50;;;;;;4974813;28;20369;-74
2022/03/13 10:43:55;;;;;;;18.02;9.90;;;8.10;49.60;;;;;;4975144;28;20034;-73
2022/03/13 10:46:56;;;;;;;18.15;9.52;;;8.20;49.00;;;;;;4974705;28;20041;-73
2022/03/13 10:49:46;;;;;;;19.85;9.52;;;8.30;49.50;;;;;;4975061;28;20062;-72
2022/03/13 10:52:29;;;;;;;18.15;10.23;;;8.40;48.90;;;;;;4975236;28;20377;-73
2022/03/13 10:54:59;;;;;;;16.70;9.27;;;8.30;47.70;;;;;;4994200;28;20038;-71
2022/03/13 10:57:25;;;;;;;18.08;9.60;;;8.40;47.90;;;;;;4994091;28;20085;-72
2022/03/13 11:00:15;;;;;;;17.73;9.20;;;8.50;47.40;;;;;;4994477;28;20095;-72
2022/03/13 11:02:42;;;;;;;15.88;7.93;;;8.30;45.40;;;;;;4994576;28;20498;-73
2022/03/13 11:05:09;;;;;;;18.55;9.02;;;8.50;48.30;;;;;;4994326;28;20473;-74
2022/03/13 11:07:35;;;;;;;15.68;8.68;;;8.50;48.20;;;;;;4994364;28;20032;-74
2022/03/13 11:10:03;;;;;;;23.70;10.32;;;8.70;49.10;;;;;;4993605;28;20439;-72
2022/03/13 11:12:28;;;;;;;16.75;8.57;;;8.50;48.20;;;;;;4993598;28;20101;-73
2022/03/13 11:15:00;;;;;;;18.55;10.98;;;8.20;48.60;;;;;;4994032;28;20026;-70
2022/03/13 11:17:27;;;;;;;14.52;7.43;;;8.40;48.50;;;;;;4993636;28;20113;-73
2022/03/13 11:19:57;;;;;;;15.35;8.23;;;8.40;48.00;;;;;;4993686;28;20056;-74
2022/03/13 11:22:24;;;;;;;14.02;5.90;;;8.50;49.00;;;;;;4993982;28;20034;-76
2022/03/13 11:24:55;;;;;;;24.48;13.00;;;8.70;49.10;;;;;;4993793;28;20492;-74
2022/03/13 11:27:24;;;;;;;22.88;11.63;;;8.80;48.10;;;;;;4993307;28;20030;-74
2022/03/13 11:29:53;;;;;;;15.18;6.80;;;8.90;49.80;;;;;;4993908;28;20492;-75
2022/03/13 11:32:43;;;;;;;15.73;7.38;;;9.00;48.00;;;;;;4990483;28;20023;-73
2022/03/13 11:35:14;;;;;;;20.35;9.15;;;9.00;48.00;;;;;;4974142;28;20034;-76
2022/03/13 11:37:44;;;;;;;22.83;8.73;;;9.30;49.30;;;;;;4974300;28;20056;-76
2022/03/13 11:40:12;;;;;;;14.43;7.30;;;9.20;47.60;;;;;;4974186;28;20436;-76
2022/03/13 11:42:51;;;;;;;14.43;6.88;;;9.30;48.40;;;;;;4974152;28;20054;-74
2022/03/13 11:45:34;;;;;;;11.18;6.30;;;9.40;45.80;;;;;;4974161;28;20038;-74
2022/03/13 11:48:13;;;;;;;18.05;9.35;;;9.40;47.00;;;;;;4955782;28;20027;-74
2022/03/13 11:51:00;;;;;;;27.48;13.68;;;9.40;48.80;;;;;;4974433;28;20038;-74
2022/03/13 11:53:40;;;;;;;24.50;10.65;;;9.40;46.20;;;;;;4974153;28;20381;-73
2022/03/13 11:56:13;;;;;;;16.58;9.05;;;9.50;47.00;;;;;;4979640;28;20033;-74
2022/03/13 11:58:46;;;;;;;15.95;8.90;;;9.70;48.00;;;;;;4981031;28;20025;-73
2022/03/13 12:01:34;;;;;;;17.48;8.55;;;9.70;47.80;;;;;;4979187;28;20039;-73
2022/03/13 12:04:04;;;;;;;21.05;7.32;;;9.70;47.40;;;;;;4974878;28;20038;-73
2022/03/13 12:06:43;;;;;;;15.20;7.07;;;9.70;45.00;;;;;;4977122;28;20105;-73
2022/03/13 12:09:14;;;;;;;14.90;7.13;;;9.70;45.10;;;;;;4974609;28;20062;-74
2022/03/13 12:11:56;;;;;;;16.10;8.27;;;9.60;43.60;;;;;;4979960;28;20034;-74
2022/03/13 12:15:02;;;;;;;16.43;8.17;;;9.70;46.20;;;;;;4975969;28;20062;-74
2022/03/13 12:17:44;;;;;;;17.25;9.10;;;9.70;47.50;;;;;;4984813;28;20267;-73
2022/03/13 12:20:24;;;;;;;12.85;7.50;;;9.80;47.50;;;;;;4956189;28;20070;-72
2022/03/13 12:23:00;;;;;;;15.30;7.50;;;9.70;46.40;;;;;;4982437;28;20376;-74
2022/03/13 12:25:30;;;;;;;14.45;8.13;;;9.80;46.70;;;;;;4979544;28;20563;-73
2022/03/13 12:27:57;;;;;;;15.98;8.45;;;9.70;46.40;;;;;;4975042;28;20418;-73
2022/03/13 12:30:29;;;;;;;18.55;8.48;;;9.60;45.00;;;;;;4973614;28;20023;-73
2022/03/13 12:33:00;;;;;;;14.05;6.75;;;9.60;46.10;;;;;;4979841;28;20026;-74
2022/03/13 12:35:26;;;;;;;14.52;7.63;;;9.50;43.20;;;;;;4973766;28;20053;-73